»·PEaware :: N614FT KDUG-KDVT

N614FT :: KDUG-KDVT

FLIGHT INFORMATION

Flight Status: Arrived
Operator: Privately registered:
United States
More flights under this callsign
Pilot: Carlos A. (16805)
Aircraft: PIPER PA-31/31P NAVAJO CHIEFTAIN
(PA31)
More flights by this aircraft type
Origin: KDUG Bisbee Douglas Intl
United States
Destination: KDVT Phoenix Deer Valley
United States
More flights between these airports :: More routes between these airports
Route: IZOSI V66 TUS SUNSS8 PHX
File this flight plan on PilotEdge
Remarks: Arizona Alphabet Challenge
Altitude:
(Current/Filed)
10,000ft
Speed:
(Current/Filed)
180kts
Departed: 24-Sep-23 02:46 PM
Arrived: 24-Sep-23 03:51 PM
Distance/Time
Traveled:
79nm/1:05
Distance/Time
To Go:
Arrived

Flight Plot

Page will automatically refresh every two minutes.

Flight plan parsing failed; only flown route is shown


Map Options




Map Legend


Flown Route
Filed Route
Departure Airport
Arrival Airport
Navaid (VOR, NDB)
Fix

Horizontal Profiles

Position Reports

Time Latitude Longitude Heading Altitude Ground
Speed
24-Sep-23 14:10 31.461917 -109.599580 45 4158ft 0kts
24-Sep-23 14:11 31.461919 -109.599578 45 4158ft 0kts
24-Sep-23 14:12 31.461920 -109.599577 45 4158ft 0kts
24-Sep-23 14:13 31.461922 -109.599575 45 4158ft 0kts
24-Sep-23 14:14 31.461923 -109.599573 45 4158ft 0kts
24-Sep-23 14:15 31.461925 -109.599571 45 4158ft 0kts
24-Sep-23 14:16 31.461927 -109.599569 45 4158ft 0kts
24-Sep-23 14:17 31.461928 -109.599567 45 4158ft 0kts
24-Sep-23 14:18 31.461930 -109.599565 45 4158ft 0kts
24-Sep-23 14:19 31.461931 -109.599564 45 4158ft 0kts
24-Sep-23 14:20 31.461933 -109.599562 45 4158ft 0kts
24-Sep-23 14:21 31.461935 -109.599560 45 4158ft 0kts
24-Sep-23 14:22 31.461936 -109.599558 45 4158ft 0kts
24-Sep-23 14:23 31.461938 -109.599556 45 4158ft 0kts
24-Sep-23 14:24 31.461948 -109.599544 46 4158ft 0kts
24-Sep-23 14:25 31.462060 -109.599696 274 4158ft 0kts
24-Sep-23 14:26 31.462066 -109.599727 287 4158ft 0kts
24-Sep-23 14:27 31.462070 -109.599740 287 4158ft 0kts
24-Sep-23 14:28 31.462071 -109.599743 287 4158ft 0kts
24-Sep-23 14:29 31.462071 -109.599745 287 4158ft 0kts
24-Sep-23 14:30 31.462072 -109.599747 287 4158ft 0kts
24-Sep-23 14:31 31.462072 -109.599750 287 4158ft 0kts
24-Sep-23 14:32 31.462072 -109.599750 287 4158ft 0kts
24-Sep-23 14:33 31.462073 -109.599751 287 4158ft 0kts
24-Sep-23 14:34 31.462950 -109.600325 4 4158ft 13kts
24-Sep-23 14:35 31.466282 -109.600307 358 4158ft 9kts
24-Sep-23 14:36 31.467430 -109.599686 65 4158ft 0kts
24-Sep-23 14:37 31.468937 -109.597907 45 4158ft 21kts
24-Sep-23 14:38 31.471511 -109.597500 357 4158ft 15kts
24-Sep-23 14:39 31.473571 -109.596342 54 4158ft 0kts
24-Sep-23 14:40 31.473572 -109.596341 54 4158ft 0kts
24-Sep-23 14:41 31.473572 -109.596340 54 4158ft 0kts
24-Sep-23 14:42 31.473573 -109.596338 54 4158ft 0kts
24-Sep-23 14:43 31.473574 -109.596337 54 4158ft 0kts
24-Sep-23 14:44 31.474044 -109.596119 273 4158ft 4kts
24-Sep-23 14:45 31.475960 -109.619631 310 4778ft 91kts
24-Sep-23 14:46 31.493771 -109.647041 295 5417ft 110kts
24-Sep-23 14:47 31.507141 -109.678091 303 6460ft 111kts
24-Sep-23 14:49 31.522141 -109.709783 295 7614ft 116kts
24-Sep-23 14:50 31.539230 -109.742725 301 8773ft 123kts
24-Sep-23 14:51 31.559365 -109.782029 300 9596ft 161kts
24-Sep-23 14:52 31.585310 -109.830211 298 10037ft 200kts
24-Sep-23 14:53 31.610922 -109.890254 292 9973ft 209kts
24-Sep-23 14:54 31.637491 -109.950764 297 9992ft 208kts
24-Sep-23 14:55 31.666762 -110.009747 298 10018ft 210kts
24-Sep-23 14:56 31.695585 -110.069419 296 10061ft 210kts
24-Sep-23 14:57 31.723147 -110.129747 293 10109ft 211kts
24-Sep-23 14:58 31.750605 -110.191310 300 9899ft 216kts
24-Sep-23 14:59 31.781885 -110.249185 298 9925ft 209kts
24-Sep-23 15:00 31.810712 -110.306706 299 10088ft 204kts
24-Sep-23 15:01 31.839010 -110.364233 297 10238ft 204kts
24-Sep-23 15:02 31.866070 -110.424748 294 10108ft 216kts
24-Sep-23 15:03 31.891925 -110.487237 295 10123ft 214kts
24-Sep-23 15:04 31.920457 -110.547900 299 9942ft 213kts
24-Sep-23 15:05 31.951527 -110.606120 299 10042ft 213kts
24-Sep-23 15:06 31.982127 -110.665142 298 10035ft 211kts
24-Sep-23 15:07 32.011124 -110.724384 297 10100ft 210kts
24-Sep-23 15:08 32.039188 -110.785563 296 10121ft 211kts
24-Sep-23 15:09 32.065785 -110.848031 294 10006ft 214kts
24-Sep-23 15:10 32.093612 -110.910172 308 9916ft 217kts
24-Sep-23 15:11 32.146046 -110.935530 0 9963ft 225kts
24-Sep-23 15:12 32.207209 -110.944386 346 9942ft 222kts
24-Sep-23 15:13 32.266926 -110.958998 341 10011ft 218kts
24-Sep-23 15:14 32.325954 -110.977811 344 9949ft 221kts
24-Sep-23 15:15 32.384373 -110.994634 344 9863ft 219kts
24-Sep-23 15:15 32.433258 -111.008302 342 9969ft 218kts
24-Sep-23 15:17 32.502205 -111.028750 344 10004ft 220kts
24-Sep-23 15:18 32.559573 -111.052783 333 9805ft 216kts
24-Sep-23 15:19 32.616870 -111.073894 348 9890ft 221kts
24-Sep-23 15:19 32.667047 -111.081900 347 9965ft 220kts
24-Sep-23 15:20 32.726611 -111.097999 351 9821ft 222kts
24-Sep-23 15:21 32.779480 -111.127300 318 9875ft 214kts
24-Sep-23 15:23 32.829867 -111.182786 311 9838ft 212kts
24-Sep-23 15:24 32.870811 -111.233432 316 9786ft 211kts
24-Sep-23 15:24 32.905099 -111.274476 308 10044ft 200kts
24-Sep-23 15:25 32.940622 -111.329217 310 9961ft 208kts
24-Sep-23 15:26 32.979185 -111.382259 309 9866ft 212kts
24-Sep-23 15:27 33.017067 -111.436198 310 9896ft 210kts
24-Sep-23 15:28 33.054791 -111.490470 307 9903ft 211kts
24-Sep-23 15:29 33.104271 -111.529074 337 9495ft 218kts
24-Sep-23 15:30 33.156953 -111.554704 341 8693ft 194kts
24-Sep-23 15:31 33.207285 -111.576218 342 7935ft 192kts
24-Sep-23 15:32 33.256455 -111.597415 335 7427ft 184kts
24-Sep-23 15:33 33.303964 -111.618315 345 7038ft 182kts
24-Sep-23 15:34 33.351878 -111.632425 344 6956ft 171kts
24-Sep-23 15:35 33.398064 -111.646176 343 6925ft 169kts
24-Sep-23 15:36 33.443453 -111.664011 338 6845ft 172kts
24-Sep-23 15:37 33.488207 -111.684120 342 6824ft 175kts
24-Sep-23 15:38 33.535208 -111.697741 348 7029ft 175kts
24-Sep-23 15:39 33.582544 -111.711030 347 7088ft 177kts
24-Sep-23 15:40 33.630152 -111.721964 345 6857ft 164kts
24-Sep-23 15:41 33.670926 -111.741135 339 5981ft 150kts
24-Sep-23 15:42 33.704080 -111.765394 279 5639ft 131kts
24-Sep-23 15:43 33.702078 -111.810112 265 5278ft 137kts
24-Sep-23 15:44 33.699971 -111.855719 266 4948ft 138kts
24-Sep-23 15:45 33.697756 -111.900577 266 4468ft 124kts
24-Sep-23 15:46 33.695597 -111.940973 268 3800ft 125kts
24-Sep-23 15:47 33.693495 -111.981791 267 3160ft 121kts
24-Sep-23 15:48 33.690589 -112.021902 266 2545ft 121kts
24-Sep-23 15:49 33.688498 -112.060423 274 1732ft 103kts
24-Sep-23 15:50 33.687663 -112.081912 263 1482ft 2kts
24-Sep-23 15:51 33.687038 -112.085259 222 1482ft 0kts
24-Sep-23 15:52 33.687036 -112.085261 222 1482ft 0kts
24-Sep-23 15:53 33.686891 -112.085447 222 1482ft 9kts
24-Sep-23 15:54 33.685404 -112.085595 179 1482ft 0kts
24-Sep-23 15:55 33.685402 -112.085595 179 1482ft 0kts
24-Sep-23 15:56 33.685402 -112.085595 179 1482ft 0kts
24-Sep-23 15:57 33.685402 -112.085595 179 1482ft 0kts
24-Sep-23 15:58 33.685402 -112.085595 179 1482ft 0kts
24-Sep-23 15:59 32.126033 -110.944000 310 2647ft 0kts

Navigation Log

Ident Type
Flight plan parsing failed, navigation log unavailable